sensor_id;sensor_type;location;lat;lon;timestamp;temperature;humidity
26103;DHT22;69760;49.380;8.998;2023-06-19T00:01:28;23.40;65.00
26103;DHT22;69760;49.380;8.998;2023-06-19T00:03:54;23.40;64.80
26103;DHT22;69760;49.380;8.998;2023-06-19T00:06:19;23.30;64.70
26103;DHT22;69760;49.380;8.998;2023-06-19T00:08:45;23.30;64.60
26103;DHT22;69760;49.380;8.998;2023-06-19T00:11:11;23.20;63.90
26103;DHT22;69760;49.380;8.998;2023-06-19T00:13:36;23.10;63.50
26103;DHT22;69760;49.380;8.998;2023-06-19T00:16:02;23.10;63.80
26103;DHT22;69760;49.380;8.998;2023-06-19T00:18:28;23.00;63.70
26103;DHT22;69760;49.380;8.998;2023-06-19T00:20:54;23.00;63.20
26103;DHT22;69760;49.380;8.998;2023-06-19T00:23:22;22.90;62.50
26103;DHT22;69760;49.380;8.998;2023-06-19T00:25:48;22.90;62.40
26103;DHT22;69760;49.380;8.998;2023-06-19T00:28:13;22.80;62.60
26103;DHT22;69760;49.380;8.998;2023-06-19T00:30:40;22.80;62.80
26103;DHT22;69760;49.380;8.998;2023-06-19T00:33:07;22.80;63.00
26103;DHT22;69760;49.380;8.998;2023-06-19T00:35:32;22.70;63.70
26103;DHT22;69760;49.380;8.998;2023-06-19T00:37:58;22.60;63.70
26103;DHT22;69760;49.380;8.998;2023-06-19T00:40:33;22.60;64.10
26103;DHT22;69760;49.380;8.998;2023-06-19T00:42:59;22.50;63.90
26103;DHT22;69760;49.380;8.998;2023-06-19T00:45:26;22.50;64.00
26103;DHT22;69760;49.380;8.998;2023-06-19T00:47:53;22.50;64.80
26103;DHT22;69760;49.380;8.998;2023-06-19T00:50:19;22.40;65.00
26103;DHT22;69760;49.380;8.998;2023-06-19T00:52:45;22.40;65.10
26103;DHT22;69760;49.380;8.998;2023-06-19T00:55:11;22.30;65.40
26103;DHT22;69760;49.380;8.998;2023-06-19T00:57:37;22.20;66.00
26103;DHT22;69760;49.380;8.998;2023-06-19T01:00:05;22.10;66.80
26103;DHT22;69760;49.380;8.998;2023-06-19T01:02:32;22.10;67.10
26103;DHT22;69760;49.380;8.998;2023-06-19T01:04:57;22.10;67.40
26103;DHT22;69760;49.380;8.998;2023-06-19T01:07:46;22.00;67.50
26103;DHT22;69760;49.380;8.998;2023-06-19T01:10:21;22.00;67.80
26103;DHT22;69760;49.380;8.998;2023-06-19T01:12:57;22.00;68.20
26103;DHT22;69760;49.380;8.998;2023-06-19T01:15:23;21.90;68.30
26103;DHT22;69760;49.380;8.998;2023-06-19T01:17:49;21.90;68.50
26103;DHT22;69760;49.380;8.998;2023-06-19T01:20:16;21.90;68.60
26103;DHT22;69760;49.380;8.998;2023-06-19T01:22:41;21.80;69.40
26103;DHT22;69760;49.380;8.998;2023-06-19T01:25:09;21.80;69.30
26103;DHT22;69760;49.380;8.998;2023-06-19T01:27:36;21.80;69.30
26103;DHT22;69760;49.380;8.998;2023-06-19T01:30:03;21.70;69.60
26103;DHT22;69760;49.380;8.998;2023-06-19T01:35:23;21.60;70.70
26103;DHT22;69760;49.380;8.998;2023-06-19T01:37:50;21.60;69.90
26103;DHT22;69760;49.380;8.998;2023-06-19T01:40:17;21.60;70.00
26103;DHT22;69760;49.380;8.998;2023-06-19T01:42:46;21.60;70.20
26103;DHT22;69760;49.380;8.998;2023-06-19T01:45:12;21.60;71.00
26103;DHT22;69760;49.380;8.998;2023-06-19T01:47:37;21.60;71.50
26103;DHT22;69760;49.380;8.998;2023-06-19T01:50:03;21.60;72.60
26103;DHT22;69760;49.380;8.998;2023-06-19T01:52:29;21.60;72.60
26103;DHT22;69760;49.380;8.998;2023-06-19T01:54:55;21.70;73.10
26103;DHT22;69760;49.380;8.998;2023-06-19T01:57:20;21.70;73.50
26103;DHT22;69760;49.380;8.998;2023-06-19T01:59:46;21.80;73.80
26103;DHT22;69760;49.380;8.998;2023-06-19T02:02:11;21.80;74.10
26103;DHT22;69760;49.380;8.998;2023-06-19T02:04:37;21.80;74.30
26103;DHT22;69760;49.380;8.998;2023-06-19T02:07:02;21.90;74.00
26103;DHT22;69760;49.380;8.998;2023-06-19T02:09:28;21.90;74.80
26103;DHT22;69760;49.380;8.998;2023-06-19T02:11:53;21.90;74.40
26103;DHT22;69760;49.380;8.998;2023-06-19T02:14:19;21.90;75.10
26103;DHT22;69760;49.380;8.998;2023-06-19T02:16:44;21.90;75.30
26103;DHT22;69760;49.380;8.998;2023-06-19T02:19:11;21.90;75.80
26103;DHT22;69760;49.380;8.998;2023-06-19T02:21:37;21.80;77.40
26103;DHT22;69760;49.380;8.998;2023-06-19T02:24:02;21.80;77.50
26103;DHT22;69760;49.380;8.998;2023-06-19T02:26:28;21.90;77.40
26103;DHT22;69760;49.380;8.998;2023-06-19T02:28:55;21.90;77.90
26103;DHT22;69760;49.380;8.998;2023-06-19T02:31:22;21.90;78.50
26103;DHT22;69760;49.380;8.998;2023-06-19T02:33:47;21.90;78.40
26103;DHT22;69760;49.380;8.998;2023-06-19T02:36:13;22.00;78.50
26103;DHT22;69760;49.380;8.998;2023-06-19T02:38:39;22.00;78.30
26103;DHT22;69760;49.380;8.998;2023-06-19T02:41:04;22.00;78.10
26103;DHT22;69760;49.380;8.998;2023-06-19T02:43:30;22.10;78.00
26103;DHT22;69760;49.380;8.998;2023-06-19T02:45:55;22.00;78.00
26103;DHT22;69760;49.380;8.998;2023-06-19T02:48:21;22.10;78.10
26103;DHT22;69760;49.380;8.998;2023-06-19T02:50:48;22.10;78.20
26103;DHT22;69760;49.380;8.998;2023-06-19T02:53:14;22.00;78.30
26103;DHT22;69760;49.380;8.998;2023-06-19T02:55:42;22.10;78.50
26103;DHT22;69760;49.380;8.998;2023-06-19T02:58:07;22.10;78.70
26103;DHT22;69760;49.380;8.998;2023-06-19T03:00:33;22.10;79.00
26103;DHT22;69760;49.380;8.998;2023-06-19T03:02:58;22.10;79.60
26103;DHT22;69760;49.380;8.998;2023-06-19T03:05:24;22.10;79.70
26103;DHT22;69760;49.380;8.998;2023-06-19T03:07:52;22.10;81.00
26103;DHT22;69760;49.380;8.998;2023-06-19T03:10:18;22.10;81.70
26103;DHT22;69760;49.380;8.998;2023-06-19T03:12:43;22.10;83.10
26103;DHT22;69760;49.380;8.998;2023-06-19T03:15:09;22.00;83.90
26103;DHT22;69760;49.380;8.998;2023-06-19T03:17:35;22.00;83.90
26103;DHT22;69760;49.380;8.998;2023-06-19T03:20:00;21.90;84.00
26103;DHT22;69760;49.380;8.998;2023-06-19T03:22:26;21.90;84.30
26103;DHT22;69760;49.380;8.998;2023-06-19T03:24:51;21.90;86.40
26103;DHT22;69760;49.380;8.998;2023-06-19T03:27:17;21.80;89.30
26103;DHT22;69760;49.380;8.998;2023-06-19T03:29:43;21.70;89.90
26103;DHT22;69760;49.380;8.998;2023-06-19T03:32:08;21.60;90.70
26103;DHT22;69760;49.380;8.998;2023-06-19T03:34:34;21.50;90.80
26103;DHT22;69760;49.380;8.998;2023-06-19T03:37:00;21.40;91.40
26103;DHT22;69760;49.380;8.998;2023-06-19T03:39:26;21.20;91.80
26103;DHT22;69760;49.380;8.998;2023-06-19T03:41:51;21.20;92.30
26103;DHT22;69760;49.380;8.998;2023-06-19T03:44:17;21.10;92.80
26103;DHT22;69760;49.380;8.998;2023-06-19T03:46:42;21.00;93.10
26103;DHT22;69760;49.380;8.998;2023-06-19T03:49:08;21.00;93.70
26103;DHT22;69760;49.380;8.998;2023-06-19T03:51:35;21.00;93.70
26103;DHT22;69760;49.380;8.998;2023-06-19T03:54:00;21.00;93.80
26103;DHT22;69760;49.380;8.998;2023-06-19T03:56:26;21.10;93.70
26103;DHT22;69760;49.380;8.998;2023-06-19T03:58:51;21.10;93.60
26103;DHT22;69760;49.380;8.998;2023-06-19T04:01:17;21.20;93.40
26103;DHT22;69760;49.380;8.998;2023-06-19T04:03:42;21.30;93.60
26103;DHT22;69760;49.380;8.998;2023-06-19T04:06:08;21.30;93.80
26103;DHT22;69760;49.380;8.998;2023-06-19T04:08:33;21.30;93.80
26103;DHT22;69760;49.380;8.998;2023-06-19T04:10:59;21.30;93.50
26103;DHT22;69760;49.380;8.998;2023-06-19T04:13:25;21.30;93.70
26103;DHT22;69760;49.380;8.998;2023-06-19T04:15:51;21.30;93.50
26103;DHT22;69760;49.380;8.998;2023-06-19T04:18:17;21.30;93.30
26103;DHT22;69760;49.380;8.998;2023-06-19T04:20:43;21.40;93.10
26103;DHT22;69760;49.380;8.998;2023-06-19T04:23:08;21.50;93.20
26103;DHT22;69760;49.380;8.998;2023-06-19T04:25:34;21.40;92.60
26103;DHT22;69760;49.380;8.998;2023-06-19T04:28:00;21.50;93.10
26103;DHT22;69760;49.380;8.998;2023-06-19T04:30:29;21.50;93.40
26103;DHT22;69760;49.380;8.998;2023-06-19T04:32:57;21.40;92.90
26103;DHT22;69760;49.380;8.998;2023-06-19T04:35:22;21.40;93.00
26103;DHT22;69760;49.380;8.998;2023-06-19T04:37:49;21.40;93.00
26103;DHT22;69760;49.380;8.998;2023-06-19T04:40:14;21.50;92.80
26103;DHT22;69760;49.380;8.998;2023-06-19T04:42:40;21.50;92.90
26103;DHT22;69760;49.380;8.998;2023-06-19T04:45:06;21.40;93.30
26103;DHT22;69760;49.380;8.998;2023-06-19T04:47:33;21.50;93.40
26103;DHT22;69760;49.380;8.998;2023-06-19T04:49:59;21.40;93.90
26103;DHT22;69760;49.380;8.998;2023-06-19T04:52:24;21.50;94.40
26103;DHT22;69760;49.380;8.998;2023-06-19T04:54:50;21.40;94.80
26103;DHT22;69760;49.380;8.998;2023-06-19T04:57:15;21.30;94.90
26103;DHT22;69760;49.380;8.998;2023-06-19T04:59:42;21.40;95.40
26103;DHT22;69760;49.380;8.998;2023-06-19T05:02:10;21.40;95.60
26103;DHT22;69760;49.380;8.998;2023-06-19T05:04:35;21.50;95.80
26103;DHT22;69760;49.380;8.998;2023-06-19T05:07:01;21.50;96.00
26103;DHT22;69760;49.380;8.998;2023-06-19T05:09:28;21.50;96.50
26103;DHT22;69760;49.380;8.998;2023-06-19T05:11:54;21.50;96.20
26103;DHT22;69760;49.380;8.998;2023-06-19T05:14:19;21.60;96.10
26103;DHT22;69760;49.380;8.998;2023-06-19T05:16:45;21.60;96.20
26103;DHT22;69760;49.380;8.998;2023-06-19T05:19:10;21.60;95.70
26103;DHT22;69760;49.380;8.998;2023-06-19T05:21:36;21.60;95.70
26103;DHT22;69760;49.380;8.998;2023-06-19T05:24:02;21.60;95.50
26103;DHT22;69760;49.380;8.998;2023-06-19T05:26:27;21.60;95.80
26103;DHT22;69760;49.380;8.998;2023-06-19T05:28:53;21.50;95.10
26103;DHT22;69760;49.380;8.998;2023-06-19T05:31:19;21.50;95.30
26103;DHT22;69760;49.380;8.998;2023-06-19T05:33:44;21.60;95.50
26103;DHT22;69760;49.380;8.998;2023-06-19T05:36:11;21.50;95.40
26103;DHT22;69760;49.380;8.998;2023-06-19T05:38:36;21.60;95.30
26103;DHT22;69760;49.380;8.998;2023-06-19T05:41:03;21.60;95.20
26103;DHT22;69760;49.380;8.998;2023-06-19T05:43:28;21.60;95.50
26103;DHT22;69760;49.380;8.998;2023-06-19T05:45:54;21.60;95.50
26103;DHT22;69760;49.380;8.998;2023-06-19T05:48:21;21.60;95.60
26103;DHT22;69760;49.380;8.998;2023-06-19T05:50:47;21.70;95.50
26103;DHT22;69760;49.380;8.998;2023-06-19T05:53:13;21.70;95.30
26103;DHT22;69760;49.380;8.998;2023-06-19T05:55:38;21.80;95.90
26103;DHT22;69760;49.380;8.998;2023-06-19T05:58:04;21.80;95.20
26103;DHT22;69760;49.380;8.998;2023-06-19T06:00:30;21.80;95.40
26103;DHT22;69760;49.380;8.998;2023-06-19T06:02:57;21.90;95.20
26103;DHT22;69760;49.380;8.998;2023-06-19T06:05:25;22.00;95.10
26103;DHT22;69760;49.380;8.998;2023-06-19T06:07:52;21.90;95.10
26103;DHT22;69760;49.380;8.998;2023-06-19T06:10:23;21.90;95.50
26103;DHT22;69760;49.380;8.998;2023-06-19T06:12:49;21.90;95.50
26103;DHT22;69760;49.380;8.998;2023-06-19T06:15:15;21.90;95.60
26103;DHT22;69760;49.380;8.998;2023-06-19T06:17:41;22.00;95.60
26103;DHT22;69760;49.380;8.998;2023-06-19T06:20:07;22.10;95.40
26103;DHT22;69760;49.380;8.998;2023-06-19T06:22:42;22.00;95.50
26103;DHT22;69760;49.380;8.998;2023-06-19T06:25:08;22.00;95.60
26103;DHT22;69760;49.380;8.998;2023-06-19T06:27:35;22.10;96.00
26103;DHT22;69760;49.380;8.998;2023-06-19T06:30:02;22.10;95.60
26103;DHT22;69760;49.380;8.998;2023-06-19T06:32:27;22.20;95.80
26103;DHT22;69760;49.380;8.998;2023-06-19T06:34:54;22.20;95.60
26103;DHT22;69760;49.380;8.998;2023-06-19T06:37:20;22.20;95.70
26103;DHT22;69760;49.380;8.998;2023-06-19T06:39:48;22.40;95.50
26103;DHT22;69760;49.380;8.998;2023-06-19T06:42:15;22.50;95.30
26103;DHT22;69760;49.380;8.998;2023-06-19T06:44:41;22.50;95.20
26103;DHT22;69760;49.380;8.998;2023-06-19T06:47:06;22.50;95.10
26103;DHT22;69760;49.380;8.998;2023-06-19T06:49:32;22.50;95.50
26103;DHT22;69760;49.380;8.998;2023-06-19T06:51:57;22.60;95.40
26103;DHT22;69760;49.380;8.998;2023-06-19T06:54:23;22.80;95.50
26103;DHT22;69760;49.380;8.998;2023-06-19T06:56:48;22.80;95.50
26103;DHT22;69760;49.380;8.998;2023-06-19T06:59:14;22.90;95.10
26103;DHT22;69760;49.380;8.998;2023-06-19T07:01:42;23.00;95.30
26103;DHT22;69760;49.380;8.998;2023-06-19T07:04:08;23.00;95.00
26103;DHT22;69760;49.380;8.998;2023-06-19T07:06:33;23.10;94.50
26103;DHT22;69760;49.380;8.998;2023-06-19T07:08:59;23.10;94.40
26103;DHT22;69760;49.380;8.998;2023-06-19T07:11:24;23.10;94.10
26103;DHT22;69760;49.380;8.998;2023-06-19T07:13:50;23.30;94.00
26103;DHT22;69760;49.380;8.998;2023-06-19T07:16:15;23.30;93.80
26103;DHT22;69760;49.380;8.998;2023-06-19T07:18:41;23.30;93.80
26103;DHT22;69760;49.380;8.998;2023-06-19T07:21:11;23.30;93.60
26103;DHT22;69760;49.380;8.998;2023-06-19T07:23:39;23.30;94.20
26103;DHT22;69760;49.380;8.998;2023-06-19T07:26:05;23.30;94.50
26103;DHT22;69760;49.380;8.998;2023-06-19T07:28:30;23.40;94.30
26103;DHT22;69760;49.380;8.998;2023-06-19T07:30:56;23.50;93.80
26103;DHT22;69760;49.380;8.998;2023-06-19T07:33:21;23.50;93.20
26103;DHT22;69760;49.380;8.998;2023-06-19T07:35:47;23.50;93.10
26103;DHT22;69760;49.380;8.998;2023-06-19T07:38:13;23.50;93.40
26103;DHT22;69760;49.380;8.998;2023-06-19T07:40:38;23.60;95.00
26103;DHT22;69760;49.380;8.998;2023-06-19T07:43:04;23.70;93.30
26103;DHT22;69760;49.380;8.998;2023-06-19T07:45:30;23.60;93.20
26103;DHT22;69760;49.380;8.998;2023-06-19T07:47:56;23.70;93.10
26103;DHT22;69760;49.380;8.998;2023-06-19T07:50:22;23.70;93.30
26103;DHT22;69760;49.380;8.998;2023-06-19T07:52:48;23.70;93.10
26103;DHT22;69760;49.380;8.998;2023-06-19T07:55:14;23.80;93.40
26103;DHT22;69760;49.380;8.998;2023-06-19T07:57:39;23.90;93.10
26103;DHT22;69760;49.380;8.998;2023-06-19T08:00:05;23.90;92.50
26103;DHT22;69760;49.380;8.998;2023-06-19T08:02:37;23.90;92.70
26103;DHT22;69760;49.380;8.998;2023-06-19T08:05:03;23.90;92.40
26103;DHT22;69760;49.380;8.998;2023-06-19T08:07:28;23.90;92.70
26103;DHT22;69760;49.380;8.998;2023-06-19T08:09:54;24.00;93.00
26103;DHT22;69760;49.380;8.998;2023-06-19T08:12:19;24.10;92.30
26103;DHT22;69760;49.380;8.998;2023-06-19T08:14:45;24.10;92.40
26103;DHT22;69760;49.380;8.998;2023-06-19T08:17:10;24.20;92.50
26103;DHT22;69760;49.380;8.998;2023-06-19T08:19:36;24.20;92.20
26103;DHT22;69760;49.380;8.998;2023-06-19T08:22:05;24.20;91.50
26103;DHT22;69760;49.380;8.998;2023-06-19T08:24:30;24.30;91.50
26103;DHT22;69760;49.380;8.998;2023-06-19T08:26:56;24.30;91.70
26103;DHT22;69760;49.380;8.998;2023-06-19T08:29:21;24.40;91.40
26103;DHT22;69760;49.380;8.998;2023-06-19T08:31:48;24.40;91.30
26103;DHT22;69760;49.380;8.998;2023-06-19T08:34:13;24.20;91.50
26103;DHT22;69760;49.380;8.998;2023-06-19T08:36:39;24.10;91.80
26103;DHT22;69760;49.380;8.998;2023-06-19T08:39:04;24.20;92.40
26103;DHT22;69760;49.380;8.998;2023-06-19T08:41:30;24.30;92.80
26103;DHT22;69760;49.380;8.998;2023-06-19T08:43:56;24.40;91.80
26103;DHT22;69760;49.380;8.998;2023-06-19T08:46:21;24.50;91.90
26103;DHT22;69760;49.380;8.998;2023-06-19T08:48:47;24.60;92.00
26103;DHT22;69760;49.380;8.998;2023-06-19T08:51:13;24.70;91.20
26103;DHT22;69760;49.380;8.998;2023-06-19T08:53:46;24.70;91.10
26103;DHT22;69760;49.380;8.998;2023-06-19T08:56:12;24.70;90.90
26103;DHT22;69760;49.380;8.998;2023-06-19T08:58:38;24.60;91.00
26103;DHT22;69760;49.380;8.998;2023-06-19T09:01:03;24.70;91.50
26103;DHT22;69760;49.380;8.998;2023-06-19T09:03:29;24.80;91.70
26103;DHT22;69760;49.380;8.998;2023-06-19T09:05:54;24.90;90.90
26103;DHT22;69760;49.380;8.998;2023-06-19T09:08:22;25.00;90.90
26103;DHT22;69760;49.380;8.998;2023-06-19T09:11:02;25.00;90.00
26103;DHT22;69760;49.380;8.998;2023-06-19T09:13:28;25.00;90.00
26103;DHT22;69760;49.380;8.998;2023-06-19T09:16:12;25.00;90.10
26103;DHT22;69760;49.380;8.998;2023-06-19T09:18:46;24.90;90.20
26103;DHT22;69760;49.380;8.998;2023-06-19T09:21:18;24.90;90.10
26103;DHT22;69760;49.380;8.998;2023-06-19T09:23:47;25.00;89.90
26103;DHT22;69760;49.380;8.998;2023-06-19T09:26:14;25.10;90.00
26103;DHT22;69760;49.380;8.998;2023-06-19T09:28:41;25.20;90.10
26103;DHT22;69760;49.380;8.998;2023-06-19T09:31:10;25.30;88.90
26103;DHT22;69760;49.380;8.998;2023-06-19T09:33:36;25.50;88.30
26103;DHT22;69760;49.380;8.998;2023-06-19T09:36:04;25.60;88.50
26103;DHT22;69760;49.380;8.998;2023-06-19T09:38:31;25.80;86.60
26103;DHT22;69760;49.380;8.998;2023-06-19T09:41:02;25.80;85.70
26103;DHT22;69760;49.380;8.998;2023-06-19T09:43:43;25.80;85.80
26103;DHT22;69760;49.380;8.998;2023-06-19T09:46:10;25.70;85.40
26103;DHT22;69760;49.380;8.998;2023-06-19T09:48:41;25.70;85.80
26103;DHT22;69760;49.380;8.998;2023-06-19T09:53:36;25.90;85.40
26103;DHT22;69760;49.380;8.998;2023-06-19T09:56:02;26.00;85.20
26103;DHT22;69760;49.380;8.998;2023-06-19T09:58:29;26.10;85.60
26103;DHT22;69760;49.380;8.998;2023-06-19T10:00:55;26.30;84.30
26103;DHT22;69760;49.380;8.998;2023-06-19T10:03:29;26.40;83.50
26103;DHT22;69760;49.380;8.998;2023-06-19T10:06:01;26.50;83.40
26103;DHT22;69760;49.380;8.998;2023-06-19T10:08:41;26.60;82.60
26103;DHT22;69760;49.380;8.998;2023-06-19T10:11:08;26.60;82.80
26103;DHT22;69760;49.380;8.998;2023-06-19T10:13:35;26.60;82.20
26103;DHT22;69760;49.380;8.998;2023-06-19T10:16:02;26.50;83.60
26103;DHT22;69760;49.380;8.998;2023-06-19T10:18:27;26.60;83.40
26103;DHT22;69760;49.380;8.998;2023-06-19T10:20:54;26.80;82.90
26103;DHT22;69760;49.380;8.998;2023-06-19T10:23:22;26.90;81.40
26103;DHT22;69760;49.380;8.998;2023-06-19T10:25:58;26.90;80.70
26103;DHT22;69760;49.380;8.998;2023-06-19T10:30:54;27.00;79.50
26103;DHT22;69760;49.380;8.998;2023-06-19T10:33:20;27.10;79.60
26103;DHT22;69760;49.380;8.998;2023-06-19T10:35:46;27.10;79.70
26103;DHT22;69760;49.380;8.998;2023-06-19T10:38:15;27.20;81.10
26103;DHT22;69760;49.380;8.998;2023-06-19T10:40:41;27.30;80.50
26103;DHT22;69760;49.380;8.998;2023-06-19T10:43:06;27.40;80.70
26103;DHT22;69760;49.380;8.998;2023-06-19T10:45:32;27.40;78.60
26103;DHT22;69760;49.380;8.998;2023-06-19T10:48:01;27.50;78.10
26103;DHT22;69760;49.380;8.998;2023-06-19T10:50:33;27.70;78.00
26103;DHT22;69760;49.380;8.998;2023-06-19T10:52:59;27.60;76.50
26103;DHT22;69760;49.380;8.998;2023-06-19T10:55:24;27.60;77.30
26103;DHT22;69760;49.380;8.998;2023-06-19T10:57:50;27.50;76.90
26103;DHT22;69760;49.380;8.998;2023-06-19T11:00:27;27.60;77.30
26103;DHT22;69760;49.380;8.998;2023-06-19T11:02:53;27.80;78.20
26103;DHT22;69760;49.380;8.998;2023-06-19T11:05:21;28.10;78.10
26103;DHT22;69760;49.380;8.998;2023-06-19T11:07:58;28.10;75.70
26103;DHT22;69760;49.380;8.998;2023-06-19T11:10:27;28.10;74.50
26103;DHT22;69760;49.380;8.998;2023-06-19T11:12:57;28.10;74.90
26103;DHT22;69760;49.380;8.998;2023-06-19T11:15:33;28.30;77.40
26103;DHT22;69760;49.380;8.998;2023-06-19T11:18:00;28.50;75.70
26103;DHT22;69760;49.380;8.998;2023-06-19T11:20:26;28.50;74.40
26103;DHT22;69760;49.380;8.998;2023-06-19T11:23:00;28.70;74.40
26103;DHT22;69760;49.380;8.998;2023-06-19T11:25:36;28.80;74.50
26103;DHT22;69760;49.380;8.998;2023-06-19T11:28:13;28.80;72.40
26103;DHT22;69760;49.380;8.998;2023-06-19T11:30:39;28.90;72.40
26103;DHT22;69760;49.380;8.998;2023-06-19T11:33:19;29.00;73.10
26103;DHT22;69760;49.380;8.998;2023-06-19T11:35:53;29.10;73.40
26103;DHT22;69760;49.380;8.998;2023-06-19T11:38:22;29.20;70.60
26103;DHT22;69760;49.380;8.998;2023-06-19T11:40:49;29.20;72.60
26103;DHT22;69760;49.380;8.998;2023-06-19T11:43:28;29.30;70.10
26103;DHT22;69760;49.380;8.998;2023-06-19T11:46:03;29.40;72.30
26103;DHT22;69760;49.380;8.998;2023-06-19T11:48:28;29.20;68.80
26103;DHT22;69760;49.380;8.998;2023-06-19T11:50:54;29.10;70.50
26103;DHT22;69760;49.380;8.998;2023-06-19T11:53:21;29.10;72.40
26103;DHT22;69760;49.380;8.998;2023-06-19T11:55:47;29.20;72.80
26103;DHT22;69760;49.380;8.998;2023-06-19T11:58:13;29.30;73.20
26103;DHT22;69760;49.380;8.998;2023-06-19T12:00:41;29.30;71.80
26103;DHT22;69760;49.380;8.998;2023-06-19T12:03:06;29.20;71.80
26103;DHT22;69760;49.380;8.998;2023-06-19T12:05:32;29.20;71.40
26103;DHT22;69760;49.380;8.998;2023-06-19T12:07:58;29.10;72.80
26103;DHT22;69760;49.380;8.998;2023-06-19T12:10:23;28.90;71.70
26103;DHT22;69760;49.380;8.998;2023-06-19T12:12:49;28.90;70.20
26103;DHT22;69760;49.380;8.998;2023-06-19T12:15:14;29.00;71.80
26103;DHT22;69760;49.380;8.998;2023-06-19T12:17:40;29.00;71.50
26103;DHT22;69760;49.380;8.998;2023-06-19T12:20:06;28.90;69.90
26103;DHT22;69760;49.380;8.998;2023-06-19T12:22:34;28.90;70.00
26103;DHT22;69760;49.380;8.998;2023-06-19T12:25:00;28.80;69.10
26103;DHT22;69760;49.380;8.998;2023-06-19T12:27:26;28.80;70.30
26103;DHT22;69760;49.380;8.998;2023-06-19T12:29:52;29.10;71.00
26103;DHT22;69760;49.380;8.998;2023-06-19T12:32:17;29.20;68.20
26103;DHT22;69760;49.380;8.998;2023-06-19T12:34:43;29.40;67.90
26103;DHT22;69760;49.380;8.998;2023-06-19T12:37:15;29.60;67.70
26103;DHT22;69760;49.380;8.998;2023-06-19T12:39:43;29.60;65.40
26103;DHT22;69760;49.380;8.998;2023-06-19T12:42:09;29.50;65.40
26103;DHT22;69760;49.380;8.998;2023-06-19T12:44:37;29.50;66.70
26103;DHT22;69760;49.380;8.998;2023-06-19T12:47:03;29.60;66.50
26103;DHT22;69760;49.380;8.998;2023-06-19T12:49:30;29.60;66.20
26103;DHT22;69760;49.380;8.998;2023-06-19T12:51:56;29.70;65.80
26103;DHT22;69760;49.380;8.998;2023-06-19T12:54:21;29.90;65.80
26103;DHT22;69760;49.380;8.998;2023-06-19T12:56:48;30.00;64.20
26103;DHT22;69760;49.380;8.998;2023-06-19T12:59:13;29.90;64.80
26103;DHT22;69760;49.380;8.998;2023-06-19T13:01:39;29.90;66.20
26103;DHT22;69760;49.380;8.998;2023-06-19T13:04:04;29.70;64.70
26103;DHT22;69760;49.380;8.998;2023-06-19T13:06:30;29.70;67.60
26103;DHT22;69760;49.380;8.998;2023-06-19T13:08:56;29.60;65.50
26103;DHT22;69760;49.380;8.998;2023-06-19T13:11:21;29.50;64.80
26103;DHT22;69760;49.380;8.998;2023-06-19T13:13:47;29.50;65.00
26103;DHT22;69760;49.380;8.998;2023-06-19T13:16:12;29.50;65.50
26103;DHT22;69760;49.380;8.998;2023-06-19T13:18:38;29.80;64.10
26103;DHT22;69760;49.380;8.998;2023-06-19T13:21:03;29.90;64.60
26103;DHT22;69760;49.380;8.998;2023-06-19T13:23:29;30.10;62.70
26103;DHT22;69760;49.380;8.998;2023-06-19T13:25:56;30.40;62.30
26103;DHT22;69760;49.380;8.998;2023-06-19T13:28:22;30.70;63.20
26103;DHT22;69760;49.380;8.998;2023-06-19T13:30:48;30.80;62.30
26103;DHT22;69760;49.380;8.998;2023-06-19T13:33:14;31.00;62.00
26103;DHT22;69760;49.380;8.998;2023-06-19T13:35:40;31.30;63.20
26103;DHT22;69760;49.380;8.998;2023-06-19T13:38:05;31.50;63.00
26103;DHT22;69760;49.380;8.998;2023-06-19T13:40:31;31.30;61.30
26103;DHT22;69760;49.380;8.998;2023-06-19T13:42:57;31.30;60.30
26103;DHT22;69760;49.380;8.998;2023-06-19T13:45:24;31.20;59.70
26103;DHT22;69760;49.380;8.998;2023-06-19T13:47:49;30.90;60.40
26103;DHT22;69760;49.380;8.998;2023-06-19T13:50:15;30.90;60.90
26103;DHT22;69760;49.380;8.998;2023-06-19T13:52:47;30.90;61.90
26103;DHT22;69760;49.380;8.998;2023-06-19T13:55:13;31.10;63.20
26103;DHT22;69760;49.380;8.998;2023-06-19T13:57:40;31.30;61.10
26103;DHT22;69760;49.380;8.998;2023-06-19T14:00:07;31.30;60.10
26103;DHT22;69760;49.380;8.998;2023-06-19T14:02:34;31.40;59.40
26103;DHT22;69760;49.380;8.998;2023-06-19T14:04:59;31.60;60.10
26103;DHT22;69760;49.380;8.998;2023-06-19T14:07:25;31.70;60.30
26103;DHT22;69760;49.380;8.998;2023-06-19T14:09:52;31.90;60.70
26103;DHT22;69760;49.380;8.998;2023-06-19T14:12:18;32.10;59.90
26103;DHT22;69760;49.380;8.998;2023-06-19T14:14:44;32.30;60.00
26103;DHT22;69760;49.380;8.998;2023-06-19T14:17:10;32.50;61.80
26103;DHT22;69760;49.380;8.998;2023-06-19T14:19:35;32.70;58.50
26103;DHT22;69760;49.380;8.998;2023-06-19T14:22:01;32.80;58.70
26103;DHT22;69760;49.380;8.998;2023-06-19T14:24:27;32.70;57.60
26103;DHT22;69760;49.380;8.998;2023-06-19T14:26:53;32.70;57.00
26103;DHT22;69760;49.380;8.998;2023-06-19T14:29:18;32.80;58.90
26103;DHT22;69760;49.380;8.998;2023-06-19T14:31:46;33.00;58.00
26103;DHT22;69760;49.380;8.998;2023-06-19T14:34:11;33.00;57.40
26103;DHT22;69760;49.380;8.998;2023-06-19T14:36:38;33.10;58.20
26103;DHT22;69760;49.380;8.998;2023-06-19T14:39:04;33.30;58.70
26103;DHT22;69760;49.380;8.998;2023-06-19T14:41:30;33.60;57.40
26103;DHT22;69760;49.380;8.998;2023-06-19T14:43:55;33.70;56.10
26103;DHT22;69760;49.380;8.998;2023-06-19T14:46:21;33.60;56.20
26103;DHT22;69760;49.380;8.998;2023-06-19T14:48:46;33.60;56.60
26103;DHT22;69760;49.380;8.998;2023-06-19T14:51:12;33.90;58.90
26103;DHT22;69760;49.380;8.998;2023-06-19T14:53:38;34.20;56.30
26103;DHT22;69760;49.380;8.998;2023-06-19T14:56:03;34.40;56.30
26103;DHT22;69760;49.380;8.998;2023-06-19T14:58:29;34.50;56.10
26103;DHT22;69760;49.380;8.998;2023-06-19T15:00:55;34.50;56.60
26103;DHT22;69760;49.380;8.998;2023-06-19T15:03:21;34.40;56.30
26103;DHT22;69760;49.380;8.998;2023-06-19T15:05:46;34.30;56.40
26103;DHT22;69760;49.380;8.998;2023-06-19T15:08:12;34.20;58.10
26103;DHT22;69760;49.380;8.998;2023-06-19T15:10:37;34.10;55.30
26103;DHT22;69760;49.380;8.998;2023-06-19T15:13:03;34.20;56.50
26103;DHT22;69760;49.380;8.998;2023-06-19T15:15:30;34.20;57.40
26103;DHT22;69760;49.380;8.998;2023-06-19T15:17:56;34.40;56.80
26103;DHT22;69760;49.380;8.998;2023-06-19T15:20:22;34.60;56.80
26103;DHT22;69760;49.380;8.998;2023-06-19T15:22:48;34.60;55.30
26103;DHT22;69760;49.380;8.998;2023-06-19T15:25:14;34.50;56.40
26103;DHT22;69760;49.380;8.998;2023-06-19T15:27:39;34.70;56.70
26103;DHT22;69760;49.380;8.998;2023-06-19T15:30:06;34.90;55.20
26103;DHT22;69760;49.380;8.998;2023-06-19T15:32:31;34.90;55.00
26103;DHT22;69760;49.380;8.998;2023-06-19T15:34:57;34.90;53.70